WetterOnline ( https://www.wetteronline.de )

Wetter aktuell Prag

Aktuelles Wetter: Prag-Kbely (287m)

6-stündlich | Neueste Meldungen
Ortszeit Temperatur Wetter
Mo, 21.10. 20:00 11.3° C leicht bewölkt
Mo, 21.10. 14:00 14.5° C leicht bewölkt
Mo, 21.10. 8:00 9.3° C Nebel (zunehmend)
Mo, 21.10. 2:00 9.5° C leicht bewölkt
So, 20.10. 20:00 11.7° C leicht bewölkt
So, 20.10. 14:00 13.7° C bedeckt
So, 20.10. 8:00 8.2° C Nebel (zunehmend)
So, 20.10. 2:00 9.1° C leicht bewölkt
Ortszeit Temperatur Wetter
Di, 22.10. 1:00 8° C Nebel
Di, 22.10. 0:00 10.2° C wolkenlos
Mo, 21.10. 23:00 10.2° C leicht bewölkt
Mo, 21.10. 22:00 10.1° C leicht bewölkt
Mo, 21.10. 21:50 10° C -
Mo, 21.10. 21:00 11.5° C leicht bewölkt
Ortszeit Relative Feuchte Sichtweite
Mo, 21.10. 20:00 96% 5.0 km
Mo, 21.10. 14:00 83% 8 km
Mo, 21.10. 8:00 98% 100 m
Mo, 21.10. 2:00 97% 15 km
So, 20.10. 20:00 90% 20 km
So, 20.10. 14:00 85% 15 km
So, 20.10. 8:00 98% 0.6 km
So, 20.10. 2:00 95% 10 km
Ortszeit Relative Feuchte Sichtweite
Di, 22.10. 1:00 100% 0.9 km
Di, 22.10. 0:00 98% 2.5 km
Mo, 21.10. 23:00 97% 2.5 km
Mo, 21.10. 22:00 97% 2.5 km
Mo, 21.10. 21:50 93% 2.5 km
Mo, 21.10. 21:00 97% 3.5 km
Ortszeit Niederschlagsmenge Niederschlagsart
Mo, 21.10. 20:00 0.0 l/m2 in 12 Std. -
Mo, 21.10. 14:00 0.0 l/m2 in 6 Std. Nebel
Mo, 21.10. 8:00 0.0 l/m2 in 12 Std. -
Mo, 21.10. 2:00 0.0 l/m2 in 6 Std. -
So, 20.10. 20:00 0.0 l/m2 in 12 Std. -
So, 20.10. 14:00 0.0 l/m2 in 6 Std. Nebel
So, 20.10. 8:00 0.0 l/m2 in 12 Std. Nebel
So, 20.10. 2:00 0.0 l/m2 in 6 Std. -
Ortszeit Niederschlagsmenge Niederschlagsart
Di, 22.10. 1:00 keine Meldung -
Di, 22.10. 0:00 0.0 l/m2 in 1 Std. Nebel
Mo, 21.10. 23:00 0.0 l/m2 in 1 Std. Nebel
Mo, 21.10. 22:00 0.0 l/m2 in 1 Std. Nebel
Mo, 21.10. 21:50 keine Meldung -
Mo, 21.10. 21:00 0.0 l/m2 in 1 Std. -
Ortszeit Stärke Spitze Richtung
km/h Bft. km/h Grad Sektor
Mo, 21.10. 20:00 4 1 - 220° SW
Mo, 21.10. 14:00 7 2 - 50° NO
Mo, 21.10. 8:00 7 2 - 160° S
Mo, 21.10. 2:00 0 0 - - -
So, 20.10. 20:00 14 3 - 80° O
So, 20.10. 14:00 4 1 - 90° O
So, 20.10. 8:00 11 2 - 180° S
So, 20.10. 2:00 7 2 - 60° NO
Ortszeit Stärke Spitze Richtung
km/h Bft. km/h Grad Sektor
Di, 22.10. 1:00 4 1 - 180° S
Di, 22.10. 0:00 4 1 - 280° W
Mo, 21.10. 23:00 4 1 - 230° SW
Mo, 21.10. 22:00 4 1 - 280° W
Mo, 21.10. 21:50 4 1 - uml. uml.
Mo, 21.10. 21:00 7 2 - 300° NW
Ortszeit Untergrenze Bedeckung Gattung
total tief tief mittel hoch
Mo, 21.10. 20:00 3000 m 4/8 4/8 - As -
Mo, 21.10. 14:00 270 m 5/8 2/8 St Ac Ci
Mo, 21.10. 8:00 30 m - - - - -
Mo, 21.10. 2:00 6600 m 7/8 0/8 - - Cs
So, 20.10. 20:00 7200 m 5/8 0/8 - - Ci
So, 20.10. 14:00 300 m 8/8 8/8 St - -
So, 20.10. 8:00 120 m 8/8 8/8 St - -
So, 20.10. 2:00 6000 m 7/8 0/8 - - Cs
Ortszeit Bedeckungsgrad in Achtel und Wolkenuntergrenze
Di, 22.10. 1:00 3-4(150m)
Di, 22.10. 0:00 keine Wolken
Mo, 21.10. 23:00 2(300m)
Mo, 21.10. 22:00 2(240m)
Mo, 21.10. 21:50 keine Wolken(unter 1500 m)
Mo, 21.10. 21:00 3(6600m)
Ortszeit Luftdruck NN (hPa) Tendenz (hPa in 3 Std.)
Mo, 21.10. 20:00 1022 + 1,0
Mo, 21.10. 14:00 1020 + 0,9
Mo, 21.10. 8:00 1018 + 2,0
Mo, 21.10. 2:00 1015 + 0,8
So, 20.10. 20:00 1014 + 0,4
So, 20.10. 14:00 1014 - 0,4
So, 20.10. 8:00 1014 + 0,8
So, 20.10. 2:00 1013 + 0,1
Ortszeit Luftdruck NN (hPa) Tendenz (hPa in 3 Std.)
Di, 22.10. 1:00 1021 keine Meldung
Di, 22.10. 0:00 1023 + 0,8
Mo, 21.10. 23:00 1022 + 0,5
Mo, 21.10. 22:00 1022 + 0,6
Mo, 21.10. 21:50 1021 keine Meldung
Mo, 21.10. 21:00 1022 + 0,7
Ortszeit Schneehöhe (cm)
Mo, 21.10. 20:00 -
Mo, 21.10. 14:00 -
Mo, 21.10. 8:00 -
Mo, 21.10. 2:00 -
So, 20.10. 20:00 -
So, 20.10. 14:00 -
So, 20.10. 8:00 -
So, 20.10. 2:00 -
Ortszeit Schneehöhe (cm)
Di, 22.10. 1:00 -
Di, 22.10. 0:00 -
Mo, 21.10. 23:00 -
Mo, 21.10. 22:00 -
Mo, 21.10. 21:50 -
Mo, 21.10. 21:00 -
Link zu dieser Seite / Seite empfehlen

Das Wetter in ...